Latest Weather Observations for Perisher Valley

IDN60901

Issued at 5:51 pm EST Sunday 19 April 2015 (issued every 10 minutes, with the page automatically refreshed every 10 minutes)

About weather observations | Map of Canberra area stations | Latest observations for Canberra area | Other Formats
Station Details ID: 071075 Name: PERISHER VALLEY AWS Lat: -36.41 Lon: 148.41 Height: 1738.0 m
Data from the previous 72 hours. | See also: Recent months at Perisher Valley
Date/Time
EST
Tmp

°C
App
Tmp
°C
Dew
Point
°C
Rel
Hum
%
Delta-T

°C
Wind Press
QNH
hPa
Press
MSL
hPa
Rain
since
9 am
mm
Dir
 
Spd
km/h
Gust
km/h
Spd
kts
Gust
kts
19/05:30pm -0.6 -6.1 -2.0 90 0.5 SSW 17 33 9 18 - - 3.8
19/05:00pm -0.5 -5.2 -1.9 90 0.5 SW 13 24 7 13 - - 3.8
19/04:30pm -0.3 -6.1 -1.7 90 0.5 SSW 19 33 10 18 - - 3.8
19/04:00pm 0.4 -4.5 -0.7 92 0.5 SW 15 32 8 17 - - 3.6
19/03:30pm 0.7 -3.5 -0.6 91 0.5 SSW 11 24 6 13 - - 3.6
19/03:00pm 1.0 -3.8 -0.1 92 0.5 SW 15 28 8 15 - - 3.6
19/02:30pm 0.9 -3.2 -0.1 93 0.4 SW 11 26 6 14 - - 3.6
19/02:00pm 0.6 -3.5 -0.3 94 0.4 S 11 17 6 9 - - 3.4
19/01:30pm 0.5 -3.3 -0.4 94 0.4 SW 9 22 5 12 - - 3.2
19/01:00pm 0.2 -3.2 -0.8 93 0.4 SSW 7 15 4 8 - - 2.8
19/12:30pm 0.5 -2.9 -0.4 94 0.4 SW 7 19 4 10 - - 2.2
19/12:00pm 0.0 -4.6 -1.0 93 0.4 S 13 22 7 12 - - 1.8
19/11:30am 0.3 -3.8 -0.4 95 0.3 SSW 11 22 6 12 - - 1.6
19/11:00am 0.0 -5.0 -1.0 93 0.4 SSW 15 26 8 14 - - 1.4
19/10:30am 0.5 -2.9 -0.4 94 0.4 SW 7 17 4 9 - - 1.4
19/10:00am 0.1 -4.1 -0.7 94 0.3 SSW 11 22 6 12 - - 1.4
19/09:30am 0.1 -4.1 -0.7 94 0.3 SSW 11 20 6 11 - - 0.4
19/09:00am 0.7 -2.0 0.1 96 0.2 S 4 9 2 5 - - 33.4
19/08:30am 0.6 -2.2 -0.1 95 0.3 S 4 7 2 4 - - 32.8
19/08:00am 0.8 -2.4 -0.2 93 0.4 S 6 13 3 7 - - 32.0
19/07:30am 2.3 -0.6 1.3 93 0.4 SE 6 13 3 7 - - 30.8
19/07:00am 4.3 1.8 3.7 96 0.3 N 6 15 3 8 - - 30.4
19/06:30am 4.0 2.2 3.4 96 0.3 SE 2 6 1 3 - - 29.4
19/05:30am 3.6 1.3 2.9 95 0.3 W 4 13 2 7 - - 28.8
19/05:00am 3.5 0.8 2.9 96 0.3 WSW 6 11 3 6 - - 28.6
19/04:30am 3.3 1.4 2.7 96 0.3 NNW 2 6 1 3 - - 28.4
19/04:00am 3.3 0.4 2.4 94 0.4 W 7 19 4 10 - - 28.4
19/03:30am 3.4 0.1 2.5 94 0.4 W 9 22 5 12 - - 28.4
19/03:00am 3.6 0.3 2.7 94 0.4 WSW 9 17 5 9 - - 28.4
19/02:30am 3.5 0.7 2.0 90 0.7 W 6 17 3 9 - - 28.4
19/02:00am 3.4 -0.5 1.4 87 0.9 W 11 22 6 12 - - 28.4
19/01:30am 4.1 0.3 1.5 83 1.1 W 11 30 6 16 - - 28.4
19/01:00am 4.4 0.7 2.1 85 1.0 WNW 11 22 6 12 - - 28.4
19/12:30am 4.8 1.2 3.0 88 0.8 W 11 24 6 13 - - 28.4
19/12:00am 5.3 1.8 3.6 89 0.8 WNW 11 22 6 12 - - 28.4
 
Date/Time
EST
Tmp

°C
App
Tmp
°C
Dew
Point
°C
Rel
Hum
%
Delta-T

°C
Wind Press
QNH
hPa
Press
MSL
hPa
Rain
since
9 am
mm
Dir
 
Spd
km/h
Gust
km/h
Spd
kts
Gust
kts
18/11:30pm 6.2 4.0 5.2 93 0.5 W 6 15 3 8 - - 28.4
18/11:00pm 6.6 3.1 5.4 92 0.6 WSW 13 33 7 18 - - 28.4
18/10:30pm 6.8 4.5 5.7 93 0.5 WSW 7 20 4 11 - - 28.2
18/10:00pm 7.0 4.0 5.9 93 0.5 W 11 30 6 16 - - 28.2
18/09:00pm 7.6 4.0 6.7 94 0.5 WSW 15 37 8 20 - - 28.0
18/08:30pm 7.5 5.4 6.6 94 0.5 WNW 7 28 4 15 - - 27.4
18/08:00pm 7.8 2.1 6.6 92 0.6 W 26 61 14 33 - - 27.4
18/07:30pm 7.4 4.4 6.0 91 0.7 W 11 37 6 20 - - 26.8
18/07:00pm 7.5 3.6 5.5 87 1.0 W 15 32 8 17 - - 26.4
18/06:30pm 7.5 3.7 6.0 90 0.8 W 15 32 8 17 - - 25.2
18/06:00pm 8.9 5.4 7.4 90 0.8 W 15 37 8 20 - - 23.2
18/05:30pm 9.1 5.0 8.0 93 0.6 W 19 46 10 25 - - 19.6
18/05:00pm 9.3 7.2 8.2 93 0.6 W 9 32 5 17 - - 16.6
18/04:30pm 9.2 6.3 8.1 93 0.6 W 13 41 7 22 - - 16.0
18/04:00pm 9.3 6.5 8.5 95 0.4 W 13 54 7 29 - - 16.0
18/03:30pm 9.5 6.3 8.4 93 0.6 W 15 44 8 24 - - 15.8
18/03:00pm 9.5 5.5 8.3 92 0.6 W 19 61 10 33 - - 15.8
18/02:30pm 9.7 7.8 8.9 95 0.4 W 9 32 5 17 - - 15.0
18/02:07pm 9.3 5.2 8.7 96 0.3 WNW 20 74 11 40 - - 14.2
18/02:01pm 9.4 5.3 8.6 95 0.4 WNW 20 74 11 40 - - 14.2
18/02:00pm 9.4 5.9 8.6 95 0.4 WNW 17 74 9 40 - - 14.2
18/01:30pm 9.3 6.9 8.8 97 0.3 W 11 46 6 25 - - 13.8
18/01:15pm 9.2 4.4 8.7 97 0.3 W 24 61 13 33 - - 13.6
18/01:00pm 9.1 5.9 8.6 97 0.3 WNW 15 54 8 29 - - 13.6
18/12:30pm 9.0 5.1 8.6 97 0.2 W 19 69 10 37 - - 13.4
18/12:00pm 9.1 4.6 8.6 97 0.3 W 22 67 12 36 - - 11.4
18/11:30am 9.4 6.6 8.6 95 0.4 WNW 13 44 7 24 - - 10.2
18/11:00am 9.3 6.5 8.7 96 0.3 WNW 13 48 7 26 - - 8.2
18/10:30am 9.5 4.2 8.4 93 0.6 W 26 78 14 42 - - 7.2
18/10:28am 9.6 3.9 8.4 92 0.6 W 28 78 15 42 - - 7.2
18/10:15am 9.3 3.7 8.7 96 0.3 W 28 56 15 30 - - 6.4
18/10:00am 9.3 4.8 8.4 94 0.5 W 22 72 12 39 - - 5.2
18/09:30am 9.4 0.7 8.3 93 0.6 W 44 76 24 41 - - 2.4
18/09:00am 9.5 1.8 8.7 95 0.4 W 39 70 21 38 - - 45.2
18/08:30am 9.7 1.0 8.5 92 0.6 W 44 74 24 40 - - 43.2
18/08:15am 10.2 4.7 9.3 94 0.5 W 28 61 15 33 - - 41.2
18/08:00am 10.3 6.9 9.2 93 0.6 W 17 59 9 32 - - 40.6
18/07:30am 10.2 3.9 9.1 93 0.6 W 32 70 17 38 - - 39.4
18/07:00am 10.1 1.8 9.3 95 0.4 W 43 91 23 49 - - 37.8
18/06:38am 10.4 4.8 8.8 90 0.9 W 28 76 15 41 - - 37.2
18/06:30am 10.3 5.6 9.2 93 0.6 W 24 61 13 33 - - 37.0
18/06:00am 10.3 6.0 9.2 93 0.6 W 22 65 12 35 - - 36.2
18/05:30am 10.5 6.5 8.9 90 0.9 W 20 63 11 34 - - 35.8
18/05:25am 10.5 6.5 9.1 91 0.8 W 20 69 11 37 - - 35.4
18/05:00am 10.5 6.6 9.3 92 0.7 W 20 63 11 34 - - 34.2
18/04:30am 10.3 6.3 9.1 92 0.7 W 20 59 11 32 - - 33.2
18/04:00am 10.5 7.9 9.4 93 0.6 WNW 13 39 7 21 - - 30.4
18/03:30am 10.6 8.0 9.5 93 0.6 W 13 37 7 20 - - 29.4
18/03:00am 10.1 7.5 9.5 96 0.3 NW 13 44 7 24 - - 28.8
18/02:30am 9.8 7.9 9.2 96 0.3 WSW 9 39 5 21 - - 28.8
18/02:00am 9.6 7.7 9.0 96 0.3 W 9 32 5 17 - - 28.6
18/01:30am 9.7 5.9 8.9 95 0.4 W 19 65 10 35 - - 28.4
18/01:00am 9.5 6.4 8.9 96 0.3 W 15 46 8 25 - - 28.2
18/12:30am 9.6 5.5 8.8 95 0.4 W 20 52 11 28 - - 28.0
18/12:00am 9.9 5.4 8.7 92 0.6 W 22 65 12 35 - - 27.0
 
Date/Time
EST
Tmp

°C
App
Tmp
°C
Dew
Point
°C
Rel
Hum
%
Delta-T

°C
Wind Press
QNH
hPa
Press
MSL
hPa
Rain
since
9 am
mm
Dir
 
Spd
km/h
Gust
km/h
Spd
kts
Gust
kts
17/11:30pm 10.0 6.5 8.9 93 0.6 W 17 54 9 29 - - 25.2
17/11:00pm 10.0 6.9 8.9 93 0.6 W 15 52 8 28 - - 23.6
17/10:30pm 10.2 6.4 9.0 92 0.7 W 19 54 10 29 - - 22.6
17/10:00pm 10.1 7.1 9.2 94 0.5 W 15 46 8 25 - - 21.4
17/09:30pm 10.2 6.5 9.4 95 0.4 WSW 19 46 10 25 - - 20.0
17/09:00pm 10.2 7.2 9.3 94 0.5 W 15 39 8 21 - - 18.2
17/08:30pm 10.1 7.4 9.0 93 0.6 WNW 13 35 7 19 - - 16.8
17/08:00pm 9.9 7.2 8.8 93 0.6 WNW 13 43 7 23 - - 16.0
17/07:30pm 10.0 7.6 8.8 92 0.7 WNW 11 43 6 23 - - 15.2
17/07:00pm 9.9 8.4 9.0 94 0.5 W 7 32 4 17 - - 14.0
17/06:30pm 10.1 7.8 9.0 93 0.6 NW 11 41 6 22 - - 12.6
17/06:00pm 9.7 8.1 8.9 95 0.4 WNW 7 26 4 14 - - 11.2
17/05:30pm 9.6 6.1 8.8 95 0.4 W 17 33 9 18 - - 9.8
17/05:00pm 9.7 8.1 8.6 93 0.6 WNW 7 20 4 11 - - 7.6
17/04:30pm 9.5 8.4 8.6 94 0.5 NNW 4 17 2 9 - - 6.0
17/04:00pm 9.2 7.7 8.4 95 0.4 N 6 17 3 9 - - 3.6
17/03:30pm 9.1 7.4 8.5 96 0.3 WNW 7 19 4 10 - - 3.2
17/03:00pm 9.3 7.6 8.5 95 0.4 NNW 7 22 4 12 - - 3.2
17/02:30pm 9.5 8.0 8.4 93 0.6 N 6 19 3 10 - - 3.0
17/02:00pm 9.5 7.8 8.4 93 0.6 NW 7 15 4 8 - - 3.0
17/01:30pm 9.7 8.2 8.3 91 0.7 NNW 6 19 3 10 - - 2.8
17/01:00pm 9.9 8.9 8.7 92 0.6 NW 4 15 2 8 - - 2.4
17/12:30pm 9.4 7.8 8.6 95 0.4 NE 7 13 4 7 - - 2.0
17/12:00pm 9.2 7.5 8.3 94 0.5 NNE 7 13 4 7 - - 1.2
17/11:30am 9.3 8.1 7.9 91 0.7 NW 4 9 2 5 - - 0.8
17/11:00am 9.6 8.4 7.9 89 0.9 W 4 11 2 6 - - 0.4
17/10:30am 9.4 7.7 7.5 88 1.0 NW 6 15 3 8 - - 0.2
17/10:00am 9.0 8.4 7.3 89 0.9 CALM 0 2 0 1 - - 0.2
17/09:30am 7.9 6.2 6.0 88 1.0 E 4 9 2 5 - - 0.2
17/09:00am 7.6 5.9 5.9 89 0.9 ENE 4 9 2 5 - - 0.2
17/08:30am 7.2 4.9 5.0 86 1.1 NNE 6 11 3 6 - - 0.2
17/08:00am 7.1 4.9 5.4 89 0.8 ENE 6 9 3 5 - - 0.2
17/07:30am 6.9 5.1 5.2 89 0.8 NE 4 7 2 4 - - 0.0
17/07:00am 6.9 5.3 4.6 85 1.1 S 2 4 1 2 - - 0.0
17/06:30am 7.1 5.3 3.5 78 1.7 NE 2 6 1 3 - - 0.0
17/06:00am 6.9 5.3 2.4 73 2.1 CALM 0 4 0 2 - - 0.0
17/05:30am 6.4 4.7 1.7 72 2.1 CALM 0 2 0 1 - - 0.0
17/05:00am 6.3 4.2 2.0 74 2.0 SSW 2 2 1 1 - - 0.0
17/04:30am 7.7 5.3 2.0 67 2.6 NW 4 7 2 4 - - 0.0
17/04:00am 6.8 4.8 2.5 74 2.0 NNW 2 6 1 3 - - 0.0
17/03:30am 6.8 5.2 2.5 74 2.0 CALM 0 2 0 1 - - 0.0
17/03:00am 7.4 5.0 2.1 69 2.4 W 4 7 2 4 - - 0.0
17/02:30am 6.5 5.0 2.9 78 1.7 CALM 0 0 0 0 - - 0.0
17/02:00am 6.4 4.8 2.5 76 1.8 CALM 0 2 0 1 - - 0.0
17/01:30am 6.5 4.9 2.2 74 2.0 CALM 0 4 0 2 - - 0.0
17/01:00am 8.0 5.5 4.0 76 1.9 W 6 9 3 5 - - 0.0
17/12:30am 8.8 7.3 5.2 78 1.8 WSW 2 7 1 4 - - 0.0
17/12:00am 9.3 6.1 5.1 75 2.1 W 11 19 6 10 - - 0.0
 
Date/Time
EST
Tmp

°C
App
Tmp
°C
Dew
Point
°C
Rel
Hum
%
Delta-T

°C
Wind Press
QNH
hPa
Press
MSL
hPa
Rain
since
9 am
mm
Dir
 
Spd
km/h
Gust
km/h
Spd
kts
Gust
kts
16/11:30pm 9.1 5.3 5.8 80 1.7 W 15 28 8 15 - - 0.0
16/11:00pm 9.5 4.9 5.7 77 1.9 W 19 32 10 17 - - 0.0
16/10:30pm 10.0 4.2 4.2 67 2.9 W 24 39 13 21 - - 0.0
16/10:00pm 9.9 6.2 4.5 69 2.7 WNW 13 32 7 17 - - 0.0
16/09:30pm 9.6 7.0 4.4 70 2.6 E 7 20 4 11 - - 0.0
16/09:00pm 10.2 5.3 3.9 65 3.1 W 19 32 10 17 - - 0.0
16/08:30pm 9.9 7.4 3.6 65 3.1 WSW 6 20 3 11 - - 0.0
16/08:00pm 10.2 7.5 3.5 63 3.3 WSW 7 19 4 10 - - 0.0
16/07:30pm 9.9 7.4 3.9 66 2.9 SE 6 11 3 6 - - 0.0
16/07:00pm 10.2 8.6 4.4 67 2.9 NE 2 9 1 5 - - 0.0
16/06:30pm 10.6 8.1 4.7 67 2.9 N 7 17 4 9 - - 0.0
16/06:00pm 11.1 7.2 5.4 68 2.9 WSW 15 32 8 17 - - 0.0

Latest Capital City Observations: Canberra | Sydney | Melbourne | Brisbane | Adelaide | Perth | Hobart | Darwin

Other Formats:

Comma delimited format used in spreadsheet applications
http://www.bom.gov.au/fwo/IDN60903/IDN60903.94915.axf

JavaScript Object Notation format (JSON) in row-major order
http://www.bom.gov.au/fwo/IDN60903/IDN60903.94915.json